Time;durP1;ratioP1;P1;durP2;ratioP2;P2;SDS_P1;SDS_P2;PMS_P1;PMS_P2;Temp;Humidity;BMP_temperature;BMP_pressure;BME280_temperature;BME280_humidity;BME280_pressure;Samples;Min_cycle;Max_cycle;Signal;HPM_P1;HPM_P2
2022/07/16 00:01:22;;;;;;;3.30;1.70;;;19.20;68.50;;;22.01;50.93;101761.56;5096422;28;20226;-60
2022/07/16 00:03:52;;;;;;;2.47;2.13;;;19.20;68.50;;;21.98;50.77;101755.84;5096393;28;20216;-60
2022/07/16 00:06:21;;;;;;;2.97;1.80;;;19.20;68.50;;;21.99;50.57;101752.09;5096838;28;20197;-58
2022/07/16 00:08:49;;;;;;;4.77;1.80;;;19.10;68.50;;;21.98;51.03;101745.94;5096207;28;20189;-59
2022/07/16 00:11:17;;;;;;;3.07;1.90;;;19.10;68.30;;;21.98;50.49;101747.81;5095655;28;20222;-60
2022/07/16 00:13:46;;;;;;;2.10;1.90;;;19.10;68.10;;;21.95;50.47;101745.56;5096467;28;20188;-58
2022/07/16 00:16:15;;;;;;;3.83;2.00;;;19.10;67.90;;;21.90;50.84;101738.19;5107279;28;20183;-60
2022/07/16 00:21:29;;;;;;;4.07;2.20;;;19.10;67.70;;;21.81;50.42;101744.06;5115465;28;20215;-60
2022/07/16 00:23:56;;;;;;;3.03;2.03;;;19.00;67.60;;;21.79;50.49;101735.41;5115935;28;20269;-59
2022/07/16 00:26:24;;;;;;;4.10;1.67;;;19.00;67.80;;;21.80;50.95;101729.81;5116030;27;20530;-60
2022/07/16 00:28:52;;;;;;;2.70;2.00;;;19.00;67.60;;;21.80;50.58;101729.03;5115426;28;20200;-60
2022/07/16 00:31:20;;;;;;;3.03;1.80;;;19.00;67.70;;;21.79;50.43;101724.69;5095770;28;20205;-60
2022/07/16 00:33:47;;;;;;;3.33;2.27;;;19.00;67.40;;;21.74;50.56;101721.84;5094295;28;20283;-60
2022/07/16 00:36:15;;;;;;;3.10;2.00;;;19.00;67.20;;;21.72;50.52;101710.53;5094684;28;20206;-59
2022/07/16 00:38:42;;;;;;;3.17;1.73;;;19.00;67.30;;;21.70;50.65;101715.31;5096093;28;20675;-60
2022/07/16 00:41:19;;;;;;;1.80;1.70;;;19.00;67.20;;;21.69;50.43;101708.31;5095770;28;20231;-60
2022/07/16 00:43:48;;;;;;;2.47;1.63;;;18.90;67.10;;;21.66;50.20;101706.06;5104094;28;20543;-60
2022/07/16 00:46:18;;;;;;;3.60;1.90;;;18.90;67.10;;;21.61;50.30;101700.59;5116021;28;20548;-60
2022/07/16 00:48:46;;;;;;;3.17;1.63;;;18.90;67.00;;;21.59;50.13;101703.47;5115837;28;20195;-60
2022/07/16 00:51:15;;;;;;;2.80;1.70;;;18.90;67.10;;;21.58;50.56;101701.84;5116006;28;20252;-60
2022/07/16 00:53:44;;;;;;;4.13;1.93;;;18.80;67.00;;;21.58;49.98;101697.28;5116133;28;20192;-60
2022/07/16 00:56:16;;;;;;;2.73;1.93;;;18.80;67.00;;;21.58;50.06;101707.22;5115315;28;20271;-60
2022/07/16 00:58:47;;;;;;;2.63;2.00;;;18.80;67.10;;;21.57;50.40;101706.38;5095750;28;20642;-60
2022/07/16 01:01:17;;;;;;;2.30;1.90;;;18.80;67.10;;;21.58;50.42;101697.28;5094887;28;20204;-60
2022/07/16 01:03:45;;;;;;;5.67;1.93;;;18.80;67.00;;;21.61;50.12;101700.59;5095430;28;20192;-60
2022/07/16 01:06:14;;;;;;;2.23;1.70;;;18.80;67.00;;;21.59;50.45;101684.72;5095530;28;20220;-60
2022/07/16 01:08:44;;;;;;;2.90;1.87;;;18.80;66.90;;;21.59;50.17;101688.22;5095434;28;20594;-60
2022/07/16 01:11:16;;;;;;;2.53;1.70;;;18.80;66.80;;;21.59;50.02;101695.44;5103602;28;20698;-60
2022/07/16 01:13:45;;;;;;;2.47;1.80;;;18.80;66.80;;;21.60;49.66;101686.34;5115863;28;20641;-60
2022/07/16 01:16:13;;;;;;;3.40;1.93;;;18.80;66.60;;;21.62;50.14;101686.94;5115508;28;20194;-60
2022/07/16 01:18:44;;;;;;;3.93;1.90;;;18.80;66.60;;;21.63;49.85;101687.78;5115018;28;20694;-59
2022/07/16 01:21:12;;;;;;;2.23;1.70;;;18.80;66.60;;;21.64;49.82;101678.69;5114204;28;20204;-60
2022/07/16 01:23:42;;;;;;;2.63;2.00;;;18.90;66.70;;;21.67;50.05;101689.78;5114345;28;20188;-60
2022/07/16 01:26:10;;;;;;;2.03;1.67;;;18.90;66.70;;;21.71;49.65;101682.09;5114583;28;20257;-61
2022/07/16 01:28:37;;;;;;;2.80;1.67;;;18.90;66.70;;;21.75;50.17;101688.66;5096706;28;20583;-60
2022/07/16 01:31:05;;;;;;;2.37;1.50;;;18.90;66.70;;;21.76;49.85;101687.59;5094481;28;20226;-60
2022/07/16 01:33:35;;;;;;;3.00;1.57;;;18.90;66.60;;;21.78;49.74;101685.50;5094753;28;20185;-60
2022/07/16 01:36:06;;;;;;;3.43;2.00;;;18.90;66.60;;;21.78;49.71;101683.66;5095102;28;20188;-60
2022/07/16 01:38:34;;;;;;;3.03;2.03;;;19.00;66.50;;;21.79;49.45;101682.63;5094930;28;20192;-58
2022/07/16 01:41:03;;;;;;;2.30;1.70;;;19.00;66.50;;;21.81;49.41;101685.91;5092808;28;20196;-59
2022/07/16 01:43:31;;;;;;;1.97;1.67;;;19.00;66.50;;;21.83;49.38;101678.44;5102643;28;20543;-60
2022/07/16 01:45:59;;;;;;;4.77;1.67;;;19.00;66.30;;;21.85;49.25;101681.75;5114859;28;20563;-60
2022/07/16 01:48:26;;;;;;;2.00;1.70;;;19.00;66.90;;;21.86;49.44;101690.63;5115327;28;20187;-60
2022/07/16 01:50:54;;;;;;;1.93;1.60;;;19.00;66.20;;;21.89;49.50;101684.81;5114312;28;20665;-58
2022/07/16 01:53:22;;;;;;;1.90;1.40;;;19.00;66.10;;;21.90;49.12;101679.22;5114578;28;20188;-59
2022/07/16 01:55:49;;;;;;;3.20;1.73;;;19.10;66.30;;;21.93;49.42;101683.31;5114813;28;20643;-58
2022/07/16 01:58:18;;;;;;;2.40;1.77;;;19.10;67.00;;;21.93;49.61;101688.66;5114589;28;20226;-59
2022/07/16 02:00:46;;;;;;;3.70;1.80;;;19.10;66.30;;;21.94;49.04;101690.31;5112839;28;20568;-59
2022/07/16 02:03:14;;;;;;;4.23;1.90;;;19.10;66.60;;;21.94;49.70;101684.94;5114811;28;20516;-60
2022/07/16 02:05:43;;;;;;;2.60;1.90;;;19.10;66.80;;;21.91;49.73;101688.06;5114128;28;20207;-60
2022/07/16 02:08:11;;;;;;;4.93;2.10;;;19.10;67.00;;;21.89;50.11;101688.31;5114114;27;20192;-60
2022/07/16 02:10:39;;;;;;;2.27;1.80;;;19.10;67.50;;;21.89;50.56;101692.84;5114067;28;20196;-59
2022/07/16 02:13:07;;;;;;;4.50;2.40;;;19.10;68.10;;;21.88;50.53;101691.19;5113788;28;20211;-60
2022/07/16 02:15:36;;;;;;;1.87;1.73;;;19.10;68.40;;;21.87;50.75;101700.31;5111185;28;20219;-60
2022/07/16 02:18:04;;;;;;;2.67;2.17;;;19.00;68.90;;;21.86;50.96;101694.13;5093660;28;20261;-59
2022/07/16 02:20:31;;;;;;;3.73;2.10;;;19.00;69.10;;;21.84;50.91;101692.66;5093258;28;20272;-59
2022/07/16 02:22:59;;;;;;;2.83;2.27;;;19.00;69.30;;;21.80;51.47;101705.69;5093524;28;20220;-60
2022/07/16 02:25:27;;;;;;;3.00;2.20;;;19.00;69.50;;;21.78;52.10;101704.28;5093916;28;20209;-58
2022/07/16 02:28:06;;;;;;;2.07;1.87;;;18.90;70.20;;;21.75;52.25;101696.72;5093577;28;20201;-58
2022/07/16 02:30:39;;;;;;;4.50;2.50;;;18.90;70.10;;;21.71;52.32;101698.19;5093066;28;20200;-59
2022/07/16 02:33:09;;;;;;;2.87;2.40;;;18.90;70.60;;;21.70;51.99;101704.59;5103609;28;20678;-57
2022/07/16 02:35:38;;;;;;;3.27;2.50;;;18.90;70.90;;;21.69;52.42;101702.94;5113984;28;20636;-58
2022/07/16 02:38:07;;;;;;;3.30;2.27;;;18.80;71.10;;;21.68;52.84;101704.00;5114176;28;20195;-57
2022/07/16 02:40:37;;;;;;;2.00;1.73;;;18.80;71.60;;;21.68;52.82;101704.00;5114092;28;20199;-58
2022/07/16 02:43:06;;;;;;;2.67;2.10;;;18.80;71.80;;;21.66;52.69;101706.88;5113884;27;20214;-58
2022/07/16 02:45:39;;;;;;;2.10;1.90;;;18.80;71.90;;;21.66;53.13;101708.75;5113633;28;20211;-60
2022/07/16 02:48:07;;;;;;;2.33;2.07;;;18.80;72.10;;;21.69;52.82;101711.00;5111693;28;20195;-59
2022/07/16 02:50:35;;;;;;;2.20;2.00;;;18.80;72.30;;;21.67;52.93;101705.88;5113434;28;20191;-59
2022/07/16 02:53:03;;;;;;;2.10;1.90;;;18.80;72.30;;;21.67;53.18;101710.41;5114286;28;20210;-57
2022/07/16 02:55:31;;;;;;;2.20;2.00;;;18.70;72.60;;;21.64;53.71;101708.16;5113575;28;20664;-59
2022/07/16 02:57:58;;;;;;;5.23;2.07;;;18.70;72.70;;;21.61;53.51;101705.94;5114533;28;20192;-57
2022/07/16 03:00:28;;;;;;;2.30;2.10;;;18.70;72.70;;;21.57;53.40;101711.75;5115530;28;20192;-59
2022/07/16 03:02:57;;;;;;;1.73;1.63;;;18.70;72.80;;;21.57;53.66;101717.09;5114764;28;20207;-58
2022/07/16 03:05:25;;;;;;;6.13;2.00;;;18.70;72.90;;;21.54;53.57;101722.91;5112360;28;20294;-59
2022/07/16 03:07:53;;;;;;;2.20;1.90;;;18.70;73.10;;;21.51;53.77;101717.19;5113561;28;20186;-59
2022/07/16 03:10:20;;;;;;;3.33;2.60;;;18.60;72.90;;;21.47;54.12;101716.78;5113710;28;20184;-60
2022/07/16 03:12:48;;;;;;;3.17;2.30;;;18.60;72.90;;;21.45;54.31;101718.88;5113037;28;20291;-59
2022/07/16 03:15:15;;;;;;;2.47;2.00;;;18.60;73.30;;;21.44;53.88;101727.16;5113906;28;20181;-59
2022/07/16 03:17:43;;;;;;;3.47;2.40;;;18.60;73.40;;;21.40;54.15;101726.75;5113913;28;20184;-60
2022/07/16 03:20:12;;;;;;;4.00;2.17;;;18.60;73.80;;;21.35;54.46;101729.28;5114204;28;20196;-57
2022/07/16 03:22:43;;;;;;;1.80;1.70;;;18.60;73.80;;;21.31;54.10;101732.63;5093650;28;20208;-58
2022/07/16 03:25:12;;;;;;;2.70;2.40;;;18.50;73.70;;;21.27;54.72;101736.78;5093210;28;20204;-60
2022/07/16 03:27:39;;;;;;;3.70;2.23;;;18.50;74.10;;;21.21;54.99;101733.13;5093740;28;20196;-59
2022/07/16 03:30:08;;;;;;;3.00;2.13;;;18.50;74.10;;;21.20;54.79;101736.03;5094311;28;20189;-60
2022/07/16 03:32:36;;;;;;;3.83;2.10;;;18.40;74.40;;;21.18;55.09;101733.53;5092655;28;20215;-60
2022/07/16 03:35:06;;;;;;;3.33;2.10;;;18.40;74.70;;;21.18;55.08;101738.09;5093358;28;20557;-60
2022/07/16 03:38:57;;;;;;;2.07;1.77;;;18.40;75.00;;;21.19;55.46;101740.56;5100753;28;20195;-60
2022/07/16 03:40:22;;;;;;;4.70;2.07;;;18.30;74.90;;;21.20;55.32;101739.53;5112777;28;20195;-63
2022/07/16 03:42:49;;;;;;;3.27;1.90;;;18.30;75.20;;;21.21;55.56;101740.31;5113684;28;20222;-60
2022/07/16 03:45:17;;;;;;;3.30;1.93;;;18.40;75.30;;;21.22;55.04;101745.47;5113619;28;20660;-60
2022/07/16 03:47:44;;;;;;;2.57;1.83;;;18.40;75.60;;;21.24;55.14;101751.44;5113018;28;20647;-60
2022/07/16 03:50:12;;;;;;;4.70;2.07;;;18.40;75.80;;;21.25;55.42;101750.38;5113240;28;20192;-60
2022/07/16 03:52:45;;;;;;;4.07;1.90;;;18.30;75.80;;;21.26;55.68;101751.19;5113006;28;20208;-60
2022/07/16 03:55:13;;;;;;;3.33;2.43;;;18.40;75.80;;;21.25;55.82;101750.38;5096145;28;20193;-60
2022/07/16 03:57:42;;;;;;;3.43;2.13;;;18.30;75.90;;;21.24;55.94;101754.13;5092963;28;20184;-60
2022/07/16 04:00:12;;;;;;;3.70;1.83;;;18.40;76.20;;;21.23;55.51;101757.81;5093026;28;20189;-59
2022/07/16 04:02:39;;;;;;;1.80;1.50;;;18.30;76.00;;;21.23;56.03;101757.00;5096025;28;20208;-60
2022/07/16 04:05:08;;;;;;;3.13;1.90;;;18.40;76.10;;;21.22;55.57;101761.56;5096123;28;20568;-60
2022/07/16 04:07:36;;;;;;;4.10;1.93;;;18.40;76.00;;;21.26;55.98;101761.91;5096177;28;20189;-60
2022/07/16 04:10:05;;;;;;;3.57;1.90;;;18.40;76.10;;;21.26;55.43;101765.41;5098435;28;20195;-60
2022/07/16 04:12:33;;;;;;;2.63;1.90;;;18.40;76.20;;;21.26;55.55;101768.09;5115602;28;20216;-60
2022/07/16 04:15:00;;;;;;;2.23;2.03;;;18.40;76.10;;;21.25;55.88;101761.09;5116886;28;20184;-60
2022/07/16 04:17:28;;;;;;;2.63;2.37;;;18.40;76.10;;;21.24;56.01;101764.00;5116534;28;20192;-59
2022/07/16 04:19:55;;;;;;;5.57;2.47;;;18.40;76.20;;;21.20;56.22;101766.31;5116398;28;20192;-60
2022/07/16 04:22:23;;;;;;;2.10;1.90;;;18.40;76.20;;;21.18;55.75;101764.88;5115518;28;20208;-60
2022/07/16 04:24:50;;;;;;;4.33;1.90;;;18.40;76.30;;;21.15;56.26;101771.50;5116489;27;20195;-60
2022/07/16 04:27:19;;;;;;;4.20;1.80;;;18.30;76.50;;;21.13;56.51;101768.22;5115089;28;20577;-60
2022/07/16 04:29:46;;;;;;;3.40;1.50;;;18.30;76.60;;;21.11;56.03;101775.63;5116700;28;20187;-60
2022/07/16 04:32:13;;;;;;;2.57;1.90;;;18.30;76.70;;;21.09;56.34;101777.72;5115384;28;20226;-59
2022/07/16 04:34:41;;;;;;;4.13;2.30;;;18.30;77.60;;;21.07;56.04;101781.66;5116064;28;20662;-60
2022/07/16 04:37:08;;;;;;;2.57;1.80;;;18.30;76.90;;;21.04;56.32;101788.22;5116420;28;20239;-58
2022/07/16 04:39:35;;;;;;;4.80;1.90;;;18.20;77.40;;;21.01;56.51;101794.03;5116017;28;20188;-57
2022/07/16 04:42:03;;;;;;;6.63;2.43;;;18.20;76.90;;;21.01;56.41;101786.00;5115514;28;20559;-60
2022/07/16 04:44:32;;;;;;;2.07;1.70;;;18.20;77.10;;;21.02;56.65;101794.81;5114002;28;20188;-57
2022/07/16 04:46:59;;;;;;;2.57;1.77;;;18.20;77.10;;;21.00;56.26;101789.69;5116100;28;20223;-59
2022/07/16 04:49:26;;;;;;;3.43;1.80;;;18.20;77.00;;;20.98;56.81;101802.50;5116087;28;20192;-57
2022/07/16 04:51:54;;;;;;;3.80;1.87;;;18.10;77.00;;;20.99;56.72;101797.97;5115301;28;20550;-59
2022/07/16 04:54:21;;;;;;;3.30;1.73;;;18.10;77.00;;;20.98;56.25;101802.50;5115639;28;20188;-59
2022/07/16 04:56:48;;;;;;;3.27;1.97;;;18.20;77.10;;;20.97;56.27;101803.50;5115958;28;20187;-60
2022/07/16 04:59:16;;;;;;;1.40;1.23;;;18.10;77.00;;;20.97;56.79;101806.19;5113961;27;20191;-59
2022/07/16 05:01:44;;;;;;;2.77;1.80;;;18.20;76.90;;;20.96;56.42;101804.56;5115576;28;20227;-60
2022/07/16 05:04:12;;;;;;;4.23;1.87;;;18.20;76.80;;;21.00;56.54;101805.75;5115981;28;20188;-59
2022/07/16 05:06:40;;;;;;;4.33;1.80;;;18.20;76.80;;;21.02;56.67;101813.56;5115524;28;20252;-59
2022/07/16 05:09:07;;;;;;;4.27;1.93;;;18.20;76.70;;;21.09;56.36;101820.56;5115328;28;20195;-60
2022/07/16 05:11:34;;;;;;;3.10;1.90;;;18.20;76.80;;;21.18;56.28;101807.75;5115916;28;20207;-60
2022/07/16 05:14:02;;;;;;;2.43;1.87;;;18.20;76.60;;;21.27;55.88;101814.47;5116272;28;20199;-60
2022/07/16 05:16:29;;;;;;;5.13;1.97;;;18.30;76.60;;;21.34;55.65;101812.53;5113157;28;20188;-59
2022/07/16 05:18:58;;;;;;;5.73;1.80;;;18.40;76.20;;;21.43;55.02;101814.72;5115730;28;20199;-60
2022/07/16 05:21:25;;;;;;;3.60;1.87;;;18.40;75.60;;;21.49;54.71;101819.19;5115036;28;20264;-59
2022/07/16 05:23:53;;;;;;;4.67;1.50;;;18.40;75.00;;;21.49;54.51;101813.84;5115257;28;20200;-59
2022/07/16 05:26:20;;;;;;;1.83;1.50;;;18.50;74.70;;;21.49;54.75;101816.53;5115029;28;20203;-60
2022/07/16 05:28:48;;;;;;;1.63;1.20;;;18.50;74.30;;;21.51;54.65;101814.44;5115311;28;20200;-60
2022/07/16 05:31:16;;;;;;;2.87;1.33;;;18.60;74.20;;;21.57;54.25;101826.16;5114571;28;20211;-59
2022/07/16 05:33:43;;;;;;;4.50;1.67;;;18.60;74.10;;;21.63;54.44;101827.13;5112327;28;20554;-60
2022/07/16 05:36:12;;;;;;;4.57;1.70;;;18.60;74.20;;;21.71;54.53;101824.97;5114897;28;20658;-59
2022/07/16 05:38:40;;;;;;;5.40;2.30;;;18.70;74.50;;;21.80;54.11;101825.53;5115253;28;20195;-58
2022/07/16 05:41:07;;;;;;;4.67;1.87;;;18.70;74.20;;;21.85;53.72;101831.06;5114604;28;20679;-60
2022/07/16 05:43:34;;;;;;;3.47;1.97;;;18.80;74.10;;;21.87;54.05;101835.16;5114715;28;20187;-57
2022/07/16 05:46:02;;;;;;;4.57;1.83;;;18.90;73.80;;;21.90;53.59;101839.25;5114963;28;20200;-59
2022/07/16 05:48:29;;;;;;;4.73;2.20;;;18.90;73.50;;;21.91;53.31;101833.69;5114861;27;20782;-58
2022/07/16 05:50:57;;;;;;;2.23;1.90;;;19.00;73.20;;;21.93;53.08;101833.47;5117953;28;20188;-60
2022/07/16 05:53:26;;;;;;;2.50;1.93;;;19.00;72.90;;;21.95;53.45;101837.56;5114747;28;20278;-60
2022/07/16 05:55:53;;;;;;;5.80;2.30;;;19.00;73.50;;;21.97;53.08;101840.00;5114357;28;20263;-60
2022/07/16 05:58:20;;;;;;;4.60;2.00;;;19.00;72.50;;;22.00;52.92;101844.94;5114587;28;20196;-60
2022/07/16 06:00:48;;;;;;;3.83;2.63;;;19.00;72.40;;;22.06;52.72;101850.22;5114211;28;20197;-60
2022/07/16 06:03:15;;;;;;;3.67;1.70;;;19.10;72.20;;;22.12;52.56;101853.88;5114319;28;20188;-60
2022/07/16 06:05:43;;;;;;;4.40;2.10;;;19.10;72.00;;;22.14;52.45;101857.16;5112358;28;20208;-60
2022/07/16 06:08:11;;;;;;;3.37;2.03;;;19.20;71.90;;;22.19;52.41;101860.00;5114245;28;20604;-59
2022/07/16 06:10:40;;;;;;;5.30;2.00;;;19.20;71.60;;;22.25;52.21;101867.13;5114186;28;20199;-59
2022/07/16 06:13:07;;;;;;;7.40;2.30;;;19.20;71.30;;;22.35;51.83;101861.25;5113818;28;20261;-60
2022/07/16 06:15:35;;;;;;;5.10;2.33;;;19.30;71.20;;;22.42;51.07;101870.88;5114455;28;20624;-59
2022/07/16 06:18:03;;;;;;;7.10;2.40;;;19.30;70.20;;;22.44;50.66;101868.78;5114287;28;20188;-60
2022/07/16 06:20:31;;;;;;;3.77;2.10;;;19.30;69.80;;;22.46;50.98;101876.63;5113659;28;20196;-60
2022/07/16 06:22:59;;;;;;;4.57;2.03;;;19.40;69.80;;;22.51;50.18;101876.75;5111516;28;20218;-60
2022/07/16 06:25:26;;;;;;;6.90;2.37;;;19.40;69.10;;;22.53;50.17;101875.50;5109083;28;20200;-58
2022/07/16 06:27:55;;;;;;;4.30;2.10;;;19.50;68.80;;;22.56;50.09;101887.66;5093282;28;20196;-60
2022/07/16 06:30:23;;;;;;;7.43;2.27;;;19.50;68.60;;;22.57;49.60;101876.69;5093013;28;20542;-60
2022/07/16 06:32:50;;;;;;;3.07;1.70;;;19.50;67.60;;;22.60;49.27;101889.66;5093040;28;20216;-60
2022/07/16 06:35:18;;;;;;;2.33;1.60;;;19.60;67.60;;;22.60;49.22;101886.16;5093716;28;20223;-60
2022/07/16 06:37:45;;;;;;;3.00;1.63;;;19.60;67.40;;;22.61;49.30;101891.31;5093529;28;20267;-60
2022/07/16 06:40:13;;;;;;;4.23;2.10;;;19.60;67.40;;;22.64;48.44;101895.41;5094191;28;20193;-60
2022/07/16 06:42:40;;;;;;;4.53;1.93;;;19.60;66.60;;;22.68;48.88;101897.41;5092987;28;20236;-60
2022/07/16 06:45:10;;;;;;;5.23;1.40;;;19.60;66.80;;;22.75;48.63;101902.69;5093285;28;20189;-61
2022/07/16 06:47:37;;;;;;;6.20;2.17;;;19.70;66.70;;;22.86;48.55;101900.09;5093435;28;20216;-60
2022/07/16 06:50:05;;;;;;;2.63;1.80;;;19.80;66.40;;;23.00;48.02;101902.56;5092880;28;20196;-60
2022/07/16 06:52:33;;;;;;;5.37;2.47;;;19.80;65.90;;;23.10;47.99;101900.16;5092680;28;20214;-60
2022/07/16 06:55:00;;;;;;;4.33;2.20;;;19.90;65.60;;;23.16;47.14;101910.81;5095012;28;20192;-60
2022/07/16 06:57:28;;;;;;;4.93;1.87;;;20.00;64.50;;;23.17;46.68;101917.00;5093489;28;20651;-60
2022/07/16 06:59:55;;;;;;;4.23;1.80;;;20.00;63.90;;;23.18;46.58;101918.63;5092327;28;20193;-60
2022/07/16 07:02:24;;;;;;;2.73;1.90;;;20.00;63.00;;;23.22;45.82;101925.22;5093231;28;20212;-60
2022/07/16 07:04:51;;;;;;;4.30;1.63;;;20.00;62.50;;;23.25;46.61;101935.50;5093656;28;20191;-60
2022/07/16 07:07:19;;;;;;;3.67;1.63;;;20.00;63.70;;;23.19;45.56;101937.25;5093372;28;20219;-60
2022/07/16 07:09:46;;;;;;;8.37;2.57;;;20.00;62.10;;;23.09;45.82;101942.34;5092952;28;20207;-60
2022/07/16 07:12:14;;;;;;;9.63;2.83;;;19.90;62.30;;;23.00;45.43;101942.88;5105155;28;20668;-60
2022/07/16 07:14:41;;;;;;;5.30;1.87;;;19.90;61.70;;;22.92;45.57;101945.88;5113309;28;20188;-60
2022/07/16 07:17:08;;;;;;;5.50;1.80;;;19.90;61.50;;;22.86;44.96;101947.59;5113565;28;20180;-60
2022/07/16 07:19:37;;;;;;;5.27;1.90;;;19.90;60.40;;;22.80;45.36;101957.38;5113711;28;20219;-58
2022/07/16 07:22:05;;;;;;;5.87;2.33;;;19.90;61.00;;;22.83;45.10;101954.25;5113268;28;20243;-58
2022/07/16 07:24:32;;;;;;;5.10;2.17;;;19.90;60.40;;;22.87;44.28;101965.34;5113197;28;20192;-61
2022/07/16 07:27:16;;;;;;;5.87;3.13;;;19.80;59.30;;;22.92;42.98;101962.00;5112076;28;20208;-61
2022/07/16 07:29:44;;;;;;;6.03;2.33;;;19.90;57.70;;;23.01;42.08;101971.38;5112710;28;20196;-60
2022/07/16 07:32:12;;;;;;;7.27;3.00;;;19.90;56.50;;;23.11;40.63;101971.66;5112485;28;20365;-59
2022/07/16 07:34:41;;;;;;;5.33;2.83;;;19.90;55.00;;;23.19;40.31;101974.84;5114129;28;20191;-60
2022/07/16 07:37:08;;;;;;;5.40;1.97;;;19.90;54.40;;;23.26;39.52;101980.13;5117330;27;20184;-60
2022/07/16 07:39:36;;;;;;;4.43;2.07;;;20.00;53.90;;;23.37;39.86;101977.50;5117068;28;20189;-60
2022/07/16 07:42:03;;;;;;;4.30;2.17;;;20.10;54.50;;;23.51;39.24;101978.13;5116427;28;20314;-60
2022/07/16 07:44:31;;;;;;;4.20;2.20;;;20.20;53.80;;;23.58;39.45;101990.44;5111571;28;20287;-60
2022/07/16 07:46:58;;;;;;;4.80;2.50;;;20.30;54.00;;;23.60;39.26;101971.41;5096730;28;20208;-60
2022/07/16 07:49:26;;;;;;;6.37;2.87;;;20.30;53.80;;;23.60;39.46;101984.84;5096157;28;20184;-59
2022/07/16 07:51:55;;;;;;;6.53;2.77;;;20.40;54.10;;;23.71;39.23;101988.59;5096114;28;20703;-60
2022/07/16 07:54:22;;;;;;;5.17;2.20;;;20.40;53.60;;;23.80;38.88;101993.41;5096530;28;20667;-60
2022/07/16 07:56:50;;;;;;;5.10;2.40;;;20.50;52.80;;;23.90;39.09;101988.28;5095747;28;20544;-60
2022/07/16 07:59:18;;;;;;;8.37;3.23;;;20.60;53.30;;;24.04;38.56;102000.47;5096301;28;20189;-60
2022/07/16 08:01:45;;;;;;;4.80;2.00;;;20.80;52.50;;;24.08;36.53;102001.69;5105130;28;20212;-58
2022/07/16 08:04:13;;;;;;;3.20;1.90;;;20.80;49.80;;;24.05;35.38;102002.13;5116590;28;20607;-60
2022/07/16 08:06:40;;;;;;;4.40;2.47;;;20.80;48.30;;;24.04;35.50;101999.66;5116235;28;20241;-61
2022/07/16 08:09:09;;;;;;;3.83;2.70;;;20.80;48.00;;;24.02;35.47;101999.91;5116482;28;20198;-60
2022/07/16 08:11:36;;;;;;;4.70;2.80;;;20.90;47.40;;;24.04;35.73;102000.47;5115893;28;20207;-60
2022/07/16 08:14:07;;;;;;;4.80;2.17;;;20.90;48.30;;;24.28;35.21;102008.59;5116542;28;20191;-59
2022/07/16 08:16:52;;;;;;;4.70;1.70;;;21.00;47.80;;;24.59;34.98;102013.63;5111761;28;20188;-59
2022/07/16 08:19:20;;;;;;;4.10;1.87;;;21.10;47.80;;;24.76;34.93;102014.53;5116168;28;20187;-60
2022/07/16 08:21:47;;;;;;;5.20;1.80;;;21.30;47.70;;;25.39;34.19;102014.47;5115869;28;20308;-60
2022/07/16 08:27:04;;;;;;;5.13;1.83;;;21.90;48.00;;;27.19;32.11;102010.31;5116173;27;20244;-61
2022/07/16 08:29:32;;;;;;;3.47;1.80;;;22.40;47.10;;;27.45;31.87;102017.66;5105917;28;20255;-59
2022/07/16 08:31:59;;;;;;;5.30;1.83;;;22.80;46.00;;;27.71;31.36;102029.53;5095434;28;20599;-59
2022/07/16 08:34:26;;;;;;;6.33;1.90;;;23.10;46.00;;;27.61;31.42;102029.41;5095977;28;20184;-60
2022/07/16 08:36:54;;;;;;;5.57;1.50;;;23.30;45.10;;;27.42;31.56;102030.84;5095635;28;20181;-59
2022/07/16 08:39:23;;;;;;;5.50;2.03;;;23.30;45.40;;;27.39;31.83;102037.59;5095316;28;20529;-59
2022/07/16 08:41:53;;;;;;;4.90;2.60;;;23.40;45.50;;;27.21;32.32;102050.59;5095002;28;20216;-60
2022/07/16 08:44:21;;;;;;;6.47;2.00;;;23.40;46.00;;;27.01;32.44;102040.34;5095061;28;20172;-58
2022/07/16 08:46:50;;;;;;;5.40;2.60;;;23.30;45.40;;;26.70;32.56;102046.38;5110295;28;20227;-61
2022/07/16 08:49:19;;;;;;;4.70;2.50;;;23.10;44.80;;;26.38;32.56;102040.81;5115512;28;20489;-60
2022/07/16 08:51:48;;;;;;;7.47;2.23;;;22.90;45.50;;;26.26;33.10;102058.16;5113786;28;20564;-60
2022/07/16 08:54:20;;;;;;;2.87;1.40;;;22.80;45.80;;;26.20;33.41;102059.94;5116035;28;20199;-61
2022/07/16 08:56:50;;;;;;;3.67;1.50;;;22.70;45.30;;;26.19;32.41;102069.13;5115327;28;20192;-59
2022/07/16 08:59:17;;;;;;;3.40;1.50;;;22.60;44.70;;;26.09;33.12;102058.13;5115179;28;20207;-59
2022/07/16 09:01:45;;;;;;;6.67;1.93;;;22.50;45.60;;;26.08;33.65;102068.09;5107998;27;20215;-60
2022/07/16 09:04:12;;;;;;;3.90;1.70;;;22.50;46.00;;;26.33;32.93;102069.63;5094938;28;20196;-61
2022/07/16 09:06:40;;;;;;;2.53;1.30;;;22.50;46.00;;;27.39;32.67;102061.94;5094779;28;20503;-60
2022/07/16 09:09:07;;;;;;;5.10;1.60;;;22.70;46.80;;;27.85;31.12;102071.34;5094538;28;20196;-58
2022/07/16 09:11:35;;;;;;;3.77;1.70;;;23.10;45.90;;;27.87;30.97;102077.31;5109175;28;20684;-60
2022/07/16 09:14:08;;;;;;;4.77;2.10;;;23.40;44.80;;;27.53;30.81;102081.28;5094796;28;20211;-59
2022/07/16 09:16:39;;;;;;;5.23;1.67;;;23.40;43.90;;;27.08;32.07;102083.41;5095128;28;20193;-61
2022/07/16 09:19:12;;;;;;;3.47;1.40;;;23.40;44.60;;;26.68;33.07;102094.47;5094763;28;20199;-60
2022/07/16 09:22:00;;;;;;;7.37;2.17;;;23.30;45.20;;;26.19;34.53;102098.84;5094064;28;20231;-61
2022/07/16 09:24:38;;;;;;;3.07;1.70;;;23.00;47.10;;;25.84;34.50;102115.16;5094797;28;20637;-60
2022/07/16 09:27:08;;;;;;;4.33;1.70;;;22.80;47.50;;;25.58;35.24;102110.34;5110847;28;20215;-60
2022/07/16 09:29:48;;;;;;;3.73;1.60;;;22.60;48.00;;;25.97;35.17;102119.47;5114401;28;20192;-60
2022/07/16 09:32:28;;;;;;;7.70;2.10;;;22.40;47.70;;;27.32;32.81;102101.84;5114996;28;20211;-59
2022/07/16 09:35:04;;;;;;;5.63;2.30;;;22.60;47.00;;;28.27;30.05;102103.13;5114352;28;20203;-60
2022/07/16 09:37:48;;;;;;;3.70;1.90;;;22.90;44.60;;;29.33;28.69;102102.78;5114553;28;20211;-60
2022/07/16 09:40:30;;;;;;;3.27;1.53;;;23.50;43.20;;;29.55;26.99;102109.91;5113459;28;20200;-58
2022/07/16 09:43:00;;;;;;;4.90;2.00;;;23.90;41.60;;;29.17;27.84;102116.50;5112735;28;20219;-60
2022/07/16 09:45:32;;;;;;;4.07;1.63;;;24.20;41.20;;;29.50;27.89;102113.41;5115348;28;20192;-60
2022/07/16 09:48:00;;;;;;;4.80;2.00;;;24.40;41.20;;;30.79;26.86;102113.78;5114441;28;20290;-61
2022/07/16 09:50:36;;;;;;;5.80;1.80;;;24.80;40.90;;;31.68;25.25;102112.91;5114272;27;20231;-60
2022/07/16 09:53:14;;;;;;;4.50;1.87;;;25.30;39.80;;;31.91;24.88;102112.22;5114115;28;20253;-61
2022/07/16 09:55:58;;;;;;;3.30;1.47;;;25.80;38.30;;;31.56;25.27;102114.34;5114555;28;20219;-60
2022/07/16 09:58:26;;;;;;;3.90;1.70;;;26.00;37.00;;;31.13;24.95;102115.88;5111705;28;20187;-61
2022/07/16 10:00:56;;;;;;;3.87;1.80;;;26.10;37.00;;;30.75;26.27;102126.31;5113587;28;20179;-60
2022/07/16 10:03:24;;;;;;;4.93;2.03;;;26.10;37.20;;;30.52;25.67;102126.06;5114239;28;20192;-60
2022/07/16 10:05:52;;;;;;;6.40;2.00;;;26.00;36.90;;;30.91;25.66;102124.38;5114332;28;20184;-60
2022/07/16 10:08:20;;;;;;;6.03;2.20;;;26.00;37.20;;;31.21;25.17;102134.38;5113478;28;20223;-60
2022/07/16 10:10:48;;;;;;;3.23;2.07;;;26.00;36.80;;;31.36;24.28;102134.28;5113187;28;20195;-59
2022/07/16 10:13:22;;;;;;;7.87;3.37;;;26.10;36.00;;;31.25;23.88;102140.88;5113934;28;20192;-59
2022/07/16 10:15:49;;;;;;;3.80;2.33;;;25.90;34.60;;;30.98;25.10;102140.41;5111779;28;20257;-59
2022/07/16 10:18:38;;;;;;;5.57;2.30;;;25.90;35.70;;;31.84;24.13;102144.41;5099640;27;20638;-59
2022/07/16 10:21:13;;;;;;;6.40;2.00;;;26.10;36.30;;;32.64;23.07;102148.44;5092557;28;20215;-60
2022/07/16 10:23:44;;;;;;;3.83;1.50;;;26.30;35.40;;;33.55;22.06;102147.44;5093187;28;20253;-59
2022/07/16 10:26:17;;;;;;;5.73;2.03;;;26.70;34.60;;;34.10;21.54;102148.56;5093545;28;20185;-59